This is the latest recevied weather packets stored in our database for station/object EB1TK-13. If no packets are shown the sender has not sent any weather packets the latest 1 day(s).
| Time | Temp. | Humidity | Pressure | Rain* | Wind** | Luminosity | Snow |
|---|---|---|---|---|---|---|---|
| 1778021536 | 12.22° C | 91% | 1015.4 hPa | 0 mm | 2.24 m/s, 243° | - | - |
| 1778020937 | 12.22° C | 91% | 1015.4 hPa | 0 mm | 1.79 m/s, 229° | - | - |
| 1778020337 | 12.22° C | 90% | 1015.4 hPa | 0 mm | 2.24 m/s, 241° | - | - |
| 1778019735 | 12.78° C | 91% | 1015.5 hPa | 0 mm | 2.68 m/s, 248° | - | - |
| 1778019136 | 12.78° C | 90% | 1015.4 hPa | 0 mm | 2.68 m/s, 239° | - | - |
| 1778018538 | 12.22° C | 90% | 1015.4 hPa | 0 mm | 2.68 m/s, 242° | - | - |
| 1778017936 | 12.22° C | 90% | 1015.4 hPa | 0 mm | 2.68 m/s, 238° | - | - |
| 1778017337 | 12.22° C | 90% | 1015.4 hPa | 0 mm | 1.34 m/s, 277° | - | - |
| 1778016737 | 12.78° C | 90% | 1015.4 hPa | 0 mm | 0.89 m/s, 278° | - | - |
| 1778016134 | 12.78° C | 90% | 1015.5 hPa | 0 mm | 0.89 m/s, 279° | - | - |
| 1778015535 | 12.78° C | 90% | 1015.5 hPa | 0 mm | 0.89 m/s, 279° | - | - |
| 1778014935 | 12.78° C | 89% | 1015.5 hPa | 0 mm | 0.89 m/s, 279° | - | - |
| 1778014336 | 12.78° C | 88% | 1015.5 hPa | 0 mm | 0.89 m/s, 279° | - | - |
| 1778013736 | 12.78° C | 88% | 1015.4 hPa | 0 mm | 1.34 m/s, 281° | - | - |
| 1778013137 | 12.78° C | 88% | 1015.4 hPa | 0 mm | 0.89 m/s, 282° | - | - |
| 1778012537 | 12.78° C | 88% | 1015.3 hPa | 0 mm | 0.89 m/s, 251° | - | - |
| 1778011935 | 12.22° C | 89% | 1015.1 hPa | 0.51 mm | 1.34 m/s, 247° | - | - |
| 1778011335 | 12.22° C | 88% | 1015.1 hPa | 0.76 mm | 1.34 m/s, 243° | - | - |
| 1778010743 | 12.22° C | 88% | 1015 hPa | 1.52 mm | 1.79 m/s, 243° | - | - |
| 1778010136 | 12.22° C | 87% | 1014.9 hPa | 1.52 mm | 2.24 m/s, 251° | - | - |
| 1778009536 | 12.22° C | 87% | 1014.7 hPa | 1.52 mm | 2.68 m/s, 244° | - | - |
| 1778008937 | 12.22° C | 87% | 1014.8 hPa | 1.52 mm | 3.13 m/s, 260° | - | - |
| 1778008337 | 12.78° C | 88% | 1014.9 hPa | 1.02 mm | 1.79 m/s, 260° | - | - |
| 1778007735 | 13.33° C | 85% | 1014.8 hPa | 0.51 mm | 1.79 m/s, 276° | - | - |
| 1778007135 | 14.44° C | 82% | 1014.9 hPa | 0 mm | 0.89 m/s, 339° | - | - |
* Rain latest hour (hover to see other rain measurements)
** Current wind speed in m/s (hover to see current wind gust speed)